Time,TemperatureF,DewpointF,PressureIn,WindDirection,WindDirectionDegrees,WindSpeedMPH,WindSpeedGustMPH,Humidity,HourlyPrecipIn,Conditions,Clouds,dailyrainin,SolarRadiationWatts/m^2,SoftwareType,DateUTC
2014-11-27 00:05:00,56.0,49.0,30.17,NW,325,0.0,3.0,78,0.00,,,0.00,0,weatherlink.com 1.10,2014-11-27 05:05:00,
2014-11-27 00:20:00,55.9,49.0,30.18,NW,315,0.0,4.0,78,0.00,,,0.00,0,weatherlink.com 1.10,2014-11-27 05:20:00,
2014-11-27 00:35:00,55.8,49.0,30.17,NW,314,1.0,3.0,78,0.00,,,0.00,0,weatherlink.com 1.10,2014-11-27 05:35:00,
2014-11-27 00:50:00,55.6,49.0,30.17,West,281,3.0,3.0,78,0.00,,,0.00,0,weatherlink.com 1.10,2014-11-27 05:50:00,
2014-11-27 01:05:00,55.4,49.0,30.18,WNW,296,1.0,3.0,79,0.00,,,0.00,0,weatherlink.com 1.10,2014-11-27 06:05:00,
2014-11-27 01:20:00,55.1,49.0,30.17,WNW,302,0.0,4.0,79,0.00,,,0.00,0,weatherlink.com 1.10,2014-11-27 06:20:00,
2014-11-27 01:35:00,55.0,49.0,30.17,WNW,303,3.0,4.0,80,0.00,,,0.00,0,weatherlink.com 1.10,2014-11-27 06:35:00,
2014-11-27 01:50:00,54.8,49.0,30.17,NW,306,0.0,6.0,80,0.00,,,0.00,0,weatherlink.com 1.10,2014-11-27 06:50:00,
2014-11-27 02:05:00,54.6,49.0,30.17,NNW,329,1.0,3.0,80,0.00,,,0.00,0,weatherlink.com 1.10,2014-11-27 07:05:00,
2014-11-27 02:20:00,54.4,48.0,30.17,NNW,333,0.0,4.0,80,0.00,,,0.00,0,weatherlink.com 1.10,2014-11-27 07:20:00,
2014-11-27 02:35:00,54.3,48.0,30.17,NW,325,0.0,3.0,80,0.00,,,0.00,0,weatherlink.com 1.10,2014-11-27 07:35:00,
2014-11-27 02:50:00,54.2,48.0,30.18,NW,313,2.0,2.0,80,0.00,,,0.00,0,weatherlink.com 1.10,2014-11-27 07:50:00,
2014-11-27 03:05:00,54.0,48.0,30.18,NW,311,1.0,2.0,81,0.00,,,0.00,0,weatherlink.com 1.10,2014-11-27 08:05:00,
2014-11-27 03:20:00,53.9,48.0,30.18,NW,326,2.0,3.0,81,0.00,,,0.00,0,weatherlink.com 1.10,2014-11-27 08:20:00,
2014-11-27 03:35:00,53.6,48.0,30.18,NW,321,0.0,2.0,82,0.00,,,0.00,0,weatherlink.com 1.10,2014-11-27 08:35:00,
2014-11-27 03:50:00,53.4,48.0,30.19,NW,315,0.0,2.0,83,0.00,,,0.00,0,weatherlink.com 1.10,2014-11-27 08:50:00,
2014-11-27 04:05:00,53.2,49.0,30.19,NNW,332,0.0,4.0,84,0.00,,,0.00,0,weatherlink.com 1.10,2014-11-27 09:05:00,
2014-11-27 04:20:00,52.9,49.0,30.19,NW,306,0.0,4.0,85,0.00,,,0.00,0,weatherlink.com 1.10,2014-11-27 09:20:00,
2014-11-27 04:35:00,52.8,48.0,30.19,North,355,0.0,3.0,85,0.00,,,0.00,0,weatherlink.com 1.10,2014-11-27 09:35:00,
2014-11-27 04:50:00,52.6,48.0,30.19,NW,324,1.0,3.0,85,0.00,,,0.00,0,weatherlink.com 1.10,2014-11-27 09:50:00,
2014-11-27 05:05:00,52.5,48.0,30.20,NNW,336,0.0,4.0,85,0.00,,,0.00,0,weatherlink.com 1.10,2014-11-27 10:05:00,
2014-11-27 05:20:00,52.6,48.0,30.21,North,5,0.0,2.0,85,0.00,,,0.00,0,weatherlink.com 1.10,2014-11-27 10:20:00,
2014-11-27 05:35:00,52.6,48.0,30.21,NNW,327,1.0,4.0,84,0.00,,,0.00,0,weatherlink.com 1.10,2014-11-27 10:35:00,
2014-11-27 05:50:00,52.8,48.0,30.22,NNW,344,2.0,5.0,83,0.00,,,0.00,0,weatherlink.com 1.10,2014-11-27 10:50:00,
2014-11-27 06:05:00,52.8,48.0,30.23,NW,322,2.0,2.0,83,0.00,,,0.00,0,weatherlink.com 1.10,2014-11-27 11:05:00,
2014-11-27 06:20:00,52.7,48.0,30.23,NNW,343,0.0,3.0,83,0.00,,,0.00,0,weatherlink.com 1.10,2014-11-27 11:20:00,
2014-11-27 06:35:00,52.6,47.0,30.24,NNW,339,0.0,4.0,82,0.00,,,0.00,0,weatherlink.com 1.10,2014-11-27 11:35:00,
2014-11-27 06:50:00,52.5,47.0,30.24,WNW,302,1.0,2.0,81,0.00,,,0.00,5,weatherlink.com 1.10,2014-11-27 11:50:00,
2014-11-27 07:05:00,52.4,46.0,30.25,NNW,337,0.0,3.0,79,0.00,,,0.00,18,weatherlink.com 1.10,2014-11-27 12:05:00,
2014-11-27 07:21:00,53.1,46.0,30.25,NNW,328,2.0,5.0,78,0.00,,,0.00,44,weatherlink.com 1.10,2014-11-27 12:21:00,
2014-11-27 07:36:00,54.1,46.0,30.25,NW,319,1.0,4.0,74,0.00,,,0.00,70,weatherlink.com 1.10,2014-11-27 12:36:00,
2014-11-27 07:51:00,55.2,46.0,30.26,NW,323,1.0,5.0,71,0.00,,,0.00,102,weatherlink.com 1.10,2014-11-27 12:51:00,
2014-11-27 08:06:00,56.4,46.0,30.26,NNW,338,0.0,4.0,68,0.00,,,0.00,237,weatherlink.com 1.10,2014-11-27 13:06:00,
2014-11-27 08:21:00,58.2,45.0,30.26,North,355,2.0,5.0,62,0.00,,,0.00,288,weatherlink.com 1.10,2014-11-27 13:21:00,
2014-11-27 08:36:00,59.3,44.0,30.27,NW,306,0.0,6.0,58,0.00,,,0.00,343,weatherlink.com 1.10,2014-11-27 13:36:00,
2014-11-27 08:51:00,60.0,44.0,30.27,NW,313,2.0,5.0,57,0.00,,,0.00,390,weatherlink.com 1.10,2014-11-27 13:51:00,
2014-11-27 09:06:00,61.1,46.0,30.27,North,355,0.0,4.0,59,0.00,,,0.00,436,weatherlink.com 1.10,2014-11-27 14:06:00,
2014-11-27 09:21:00,61.2,45.0,30.27,NW,310,2.0,4.0,55,0.00,,,0.00,480,weatherlink.com 1.10,2014-11-27 14:21:00,
2014-11-27 09:36:00,63.3,46.0,30.27,West,262,1.0,4.0,53,0.00,,,0.00,519,weatherlink.com 1.10,2014-11-27 14:36:00,
2014-11-27 09:51:00,64.4,46.0,30.27,WSW,240,2.0,3.0,51,0.00,,,0.00,554,weatherlink.com 1.10,2014-11-27 14:51:00,
2014-11-27 10:06:00,65.9,45.0,30.27,SW,225,2.0,3.0,48,0.00,,,0.00,587,weatherlink.com 1.10,2014-11-27 15:06:00,
2014-11-27 10:21:00,66.3,44.0,30.26,NNW,333,2.0,5.0,44,0.00,,,0.00,617,weatherlink.com 1.10,2014-11-27 15:21:00,
2014-11-27 10:36:00,67.5,44.0,30.26,North,355,2.0,4.0,43,0.00,,,0.00,642,weatherlink.com 1.10,2014-11-27 15:36:00,
2014-11-27 10:51:00,67.7,42.0,30.25,NNW,342,1.0,9.0,40,0.00,,,0.00,663,weatherlink.com 1.10,2014-11-27 15:51:00,
2014-11-27 11:07:00,68.7,43.0,30.25,NW,311,1.0,5.0,40,0.00,,,0.00,682,weatherlink.com 1.10,2014-11-27 16:07:00,
2014-11-27 11:22:00,69.7,44.0,30.24,West,278,4.0,5.0,40,0.00,,,0.00,698,weatherlink.com 1.10,2014-11-27 16:22:00,
2014-11-27 11:37:00,69.0,42.0,30.23,NW,308,3.0,13.0,37,0.00,,,0.00,708,weatherlink.com 1.10,2014-11-27 16:37:00,
2014-11-27 11:52:00,69.5,42.0,30.22,North,355,1.0,9.0,37,0.00,,,0.00,714,weatherlink.com 1.10,2014-11-27 16:52:00,
2014-11-27 12:07:00,70.9,45.0,30.21,North,360,4.0,6.0,39,0.00,,,0.00,715,weatherlink.com 1.10,2014-11-27 17:07:00,
2014-11-27 12:22:00,71.5,45.0,30.20,WNW,289,2.0,5.0,39,0.00,,,0.00,715,weatherlink.com 1.10,2014-11-27 17:22:00,
2014-11-27 12:37:00,71.0,46.0,30.19,NNE,30,1.0,5.0,41,0.00,,,0.00,708,weatherlink.com 1.10,2014-11-27 17:37:00,
2014-11-27 12:52:00,71.5,46.0,30.18,NNW,345,1.0,6.0,40,0.00,,,0.00,698,weatherlink.com 1.10,2014-11-27 17:52:00,
2014-11-27 13:07:00,72.2,46.0,30.17,NNW,330,3.0,10.0,39,0.00,,,0.00,684,weatherlink.com 1.10,2014-11-27 18:07:00,
2014-11-27 13:22:00,72.1,48.0,30.16,NNW,334,2.0,6.0,42,0.00,,,0.00,668,weatherlink.com 1.10,2014-11-27 18:22:00,
2014-11-27 13:37:00,72.8,47.0,30.15,NW,319,2.0,8.0,40,0.00,,,0.00,647,weatherlink.com 1.10,2014-11-27 18:37:00,
2014-11-27 13:52:00,73.3,47.0,30.15,NW,325,4.0,6.0,40,0.00,,,0.00,619,weatherlink.com 1.10,2014-11-27 18:52:00,
2014-11-27 14:07:00,73.3,49.0,30.14,NW,319,2.0,4.0,42,0.00,,,0.00,587,weatherlink.com 1.10,2014-11-27 19:07:00,
2014-11-27 14:22:00,73.8,49.0,30.14,NNE,21,3.0,3.0,42,0.00,,,0.00,559,weatherlink.com 1.10,2014-11-27 19:22:00,
2014-11-27 14:37:00,73.7,48.0,30.13,West,275,1.0,5.0,41,0.00,,,0.00,522,weatherlink.com 1.10,2014-11-27 19:37:00,
2014-11-27 14:52:00,73.4,48.0,30.14,NW,324,1.0,4.0,41,0.00,,,0.00,480,weatherlink.com 1.10,2014-11-27 19:52:00,
2014-11-27 15:07:00,73.9,49.0,30.14,NNW,331,1.0,3.0,42,0.00,,,0.00,438,weatherlink.com 1.10,2014-11-27 20:07:00,
2014-11-27 15:22:00,73.7,50.0,30.14,NW,325,1.0,4.0,44,0.00,,,0.00,392,weatherlink.com 1.10,2014-11-27 20:22:00,
2014-11-27 15:37:00,73.5,49.0,30.14,NNW,330,1.0,4.0,42,0.00,,,0.00,345,weatherlink.com 1.10,2014-11-27 20:37:00,
2014-11-27 15:52:00,72.5,49.0,30.14,North,355,0.0,3.0,44,0.00,,,0.00,295,weatherlink.com 1.10,2014-11-27 20:52:00,
2014-11-27 16:07:00,72.1,50.0,30.14,West,259,1.0,4.0,45,0.00,,,0.00,32,weatherlink.com 1.10,2014-11-27 21:07:00,
2014-11-27 16:22:00,71.5,50.0,30.14,West,275,1.0,3.0,46,0.00,,,0.00,30,weatherlink.com 1.10,2014-11-27 21:22:00,
2014-11-27 16:37:00,71.0,50.0,30.14,NW,309,1.0,4.0,48,0.00,,,0.00,25,weatherlink.com 1.10,2014-11-27 21:37:00,
2014-11-27 16:52:00,70.0,50.0,30.14,WSW,247,0.0,3.0,50,0.00,,,0.00,19,weatherlink.com 1.10,2014-11-27 21:52:00,
2014-11-27 17:07:00,69.2,51.0,30.15,WSW,247,0.0,1.0,53,0.00,,,0.00,12,weatherlink.com 1.10,2014-11-27 22:07:00,
2014-11-27 17:22:00,68.4,52.0,30.15,WSW,246,1.0,2.0,56,0.00,,,0.00,7,weatherlink.com 1.10,2014-11-27 22:22:00,
2014-11-27 17:37:00,67.5,52.0,30.15,WSW,247,0.0,2.0,58,0.00,,,0.00,0,weatherlink.com 1.10,2014-11-27 22:37:00,
2014-11-27 17:52:00,66.6,53.0,30.16,WSW,249,0.0,1.0,61,0.00,,,0.00,0,weatherlink.com 1.10,2014-11-27 22:52:00,